Time;durP1;ratioP1;P1;durP2;ratioP2;P2;SDS_P1;SDS_P2;PMS_P1;PMS_P2;Temp;Humidity;BMP_temperature;BMP_pressure;BME280_temperature;BME280_humidity;BME280_pressure;Samples;Min_cycle;Max_cycle;Signal;HPM_P1;HPM_P2
2023/12/11 00:02:16;;;;;;;18.73;5.28;;;11.00;99.90;;;;;;5053300;28;20032;-68
2023/12/11 00:04:42;;;;;;;30.05;7.13;;;10.90;99.90;;;;;;5053219;28;20031;-68
2023/12/11 00:07:07;;;;;;;23.23;6.18;;;11.00;99.90;;;;;;5053064;28;20051;-68
2023/12/11 00:09:33;;;;;;;26.10;6.15;;;11.00;99.90;;;;;;5052730;28;20512;-67
2023/12/11 00:11:59;;;;;;;25.75;6.15;;;11.00;99.90;;;;;;5053052;28;20140;-68
2023/12/11 00:14:24;;;;;;;27.63;6.28;;;11.00;99.90;;;;;;5052740;28;20031;-68
2023/12/11 00:16:51;;;;;;;31.88;7.03;;;10.90;99.90;;;;;;5052590;28;20123;-68
2023/12/11 00:19:16;;;;;;;25.25;5.75;;;10.90;99.90;;;;;;5053111;28;20032;-68
2023/12/11 00:21:42;;;;;;;23.10;6.68;;;10.90;99.90;;;;;;5052627;28;20037;-68
2023/12/11 00:24:08;;;;;;;24.77;6.90;;;10.90;99.90;;;;;;5053074;28;20103;-68
2023/12/11 00:26:33;;;;;;;22.65;6.40;;;10.90;99.90;;;;;;5053020;28;20501;-68
2023/12/11 00:28:59;;;;;;;21.40;5.80;;;10.90;99.90;;;;;;5052786;28;20036;-68
2023/12/11 00:31:24;;;;;;;25.75;6.88;;;10.90;99.90;;;;;;5052842;28;20142;-68
2023/12/11 00:33:50;;;;;;;22.33;5.07;;;11.00;99.90;;;;;;5052931;28;20036;-68
2023/12/11 00:36:15;;;;;;;20.10;5.75;;;11.00;99.90;;;;;;5052742;28;20061;-67
2023/12/11 00:38:41;;;;;;;18.30;5.32;;;10.90;99.90;;;;;;5052416;28;20021;-68
2023/12/11 00:41:07;;;;;;;19.98;4.75;;;10.90;99.90;;;;;;5052877;28;20040;-68
2023/12/11 00:43:33;;;;;;;19.35;5.10;;;10.80;99.90;;;;;;5052808;28;20020;-68
2023/12/11 00:45:58;;;;;;;22.35;5.25;;;10.80;99.90;;;;;;5052369;28;20496;-69
2023/12/11 00:48:24;;;;;;;26.63;5.18;;;10.80;99.90;;;;;;5052905;28;20032;-68
2023/12/11 00:50:49;;;;;;;27.52;6.22;;;10.80;99.90;;;;;;5052942;28;20114;-68
2023/12/11 00:53:15;;;;;;;20.15;6.80;;;10.80;99.90;;;;;;5052834;28;20040;-68
2023/12/11 00:55:40;;;;;;;27.77;6.63;;;10.90;99.90;;;;;;5052745;28;20063;-67
2023/12/11 00:58:06;;;;;;;22.58;6.15;;;10.90;99.90;;;;;;5052689;28;20025;-68
2023/12/11 01:00:31;;;;;;;23.77;5.60;;;10.80;99.90;;;;;;5052740;28;20028;-68
2023/12/11 01:02:57;;;;;;;21.52;6.18;;;10.80;99.90;;;;;;5052683;28;20487;-68
2023/12/11 01:05:23;;;;;;;21.92;5.57;;;10.80;99.90;;;;;;5056036;28;20029;-68
2023/12/11 01:07:49;;;;;;;28.77;5.65;;;10.80;99.90;;;;;;5056373;28;20033;-68
2023/12/11 01:10:15;;;;;;;21.73;5.03;;;10.80;99.90;;;;;;5056285;28;20490;-68
2023/12/11 01:12:42;;;;;;;31.73;5.45;;;10.80;99.90;;;;;;5056272;28;20036;-68
2023/12/11 01:15:08;;;;;;;23.77;5.00;;;10.70;99.90;;;;;;5056249;28;20029;-67
2023/12/11 01:17:34;;;;;;;22.80;5.00;;;10.70;99.90;;;;;;5055947;28;20033;-68
2023/12/11 01:19:59;;;;;;;27.17;5.47;;;10.70;99.90;;;;;;5055989;28;20021;-67
2023/12/11 01:22:25;;;;;;;29.58;5.03;;;10.70;99.90;;;;;;5056156;28;20025;-68
2023/12/11 01:24:50;;;;;;;24.80;5.22;;;10.70;99.90;;;;;;5056155;28;20048;-68
2023/12/11 01:27:16;;;;;;;33.88;5.70;;;10.70;99.90;;;;;;5056025;28;20394;-68
2023/12/11 01:29:41;;;;;;;28.20;5.47;;;10.60;99.90;;;;;;5055860;28;20457;-68
2023/12/11 01:32:07;;;;;;;27.23;5.43;;;10.70;99.90;;;;;;5055724;28;20033;-67
2023/12/11 01:34:33;;;;;;;31.48;5.35;;;10.60;99.90;;;;;;5055896;28;20028;-67
2023/12/11 01:36:59;;;;;;;35.35;6.20;;;10.60;99.90;;;;;;5055739;28;20039;-68
2023/12/11 01:39:24;;;;;;;30.10;5.68;;;10.60;99.90;;;;;;5055407;28;20481;-67
2023/12/11 01:41:50;;;;;;;22.17;4.70;;;10.60;99.90;;;;;;5055788;28;20120;-68
2023/12/11 01:44:15;;;;;;;32.40;6.55;;;10.50;99.90;;;;;;5055682;28;20029;-68
2023/12/11 01:46:41;;;;;;;31.13;5.82;;;10.50;99.90;;;;;;5055698;28;20091;-68
2023/12/11 01:49:07;;;;;;;28.00;5.07;;;10.50;99.90;;;;;;5055078;28;20025;-68
2023/12/11 01:51:33;;;;;;;24.77;5.93;;;10.40;99.90;;;;;;5055595;28;20074;-68
2023/12/11 01:53:59;;;;;;;28.83;5.50;;;10.30;99.90;;;;;;5055036;28;20115;-68
2023/12/11 01:56:25;;;;;;;28.23;7.00;;;10.40;99.90;;;;;;5055253;28;20035;-67
2023/12/11 01:58:51;;;;;;;33.70;5.72;;;10.30;99.90;;;;;;5055519;28;20027;-68
2023/12/11 02:01:21;;;;;;;39.00;5.65;;;10.30;99.90;;;;;;5055233;28;20025;-68
2023/12/11 02:03:47;;;;;;;30.95;5.97;;;10.30;99.90;;;;;;5055496;28;20139;-68
2023/12/11 02:06:13;;;;;;;34.58;6.20;;;10.30;99.90;;;;;;5055312;28;20029;-68
2023/12/11 02:08:39;;;;;;;31.02;5.82;;;10.30;99.90;;;;;;5054755;28;20025;-68
2023/12/11 02:11:04;;;;;;;32.17;5.97;;;10.30;99.90;;;;;;5055241;28;20033;-68
2023/12/11 02:13:30;;;;;;;36.28;6.03;;;10.20;99.90;;;;;;5055133;28;20028;-68
2023/12/11 02:15:56;;;;;;;38.33;6.22;;;10.20;99.90;;;;;;5053579;28;20040;-68
2023/12/11 02:18:22;;;;;;;39.03;7.90;;;10.20;99.90;;;;;;5055082;28;20506;-68
2023/12/11 02:20:47;;;;;;;33.80;6.18;;;10.20;99.90;;;;;;5054808;28;20041;-68
2023/12/11 02:26:11;;;;;;;39.55;6.18;;;10.20;99.90;;;;;;5070698;28;20391;-67
2023/12/11 02:28:37;;;;;;;34.08;6.32;;;10.30;99.90;;;;;;5070610;28;20123;-67
2023/12/11 02:31:03;;;;;;;44.45;7.03;;;10.30;99.90;;;;;;5070701;28;20114;-67
2023/12/11 02:33:28;;;;;;;39.88;6.90;;;10.20;99.90;;;;;;5070181;28;20075;-69
2023/12/11 02:35:54;;;;;;;31.48;5.63;;;10.30;99.90;;;;;;5070437;28;20036;-67
2023/12/11 02:38:19;;;;;;;35.90;5.90;;;10.30;99.90;;;;;;5070461;28;20060;-67
2023/12/11 02:40:45;;;;;;;33.22;6.57;;;10.30;99.90;;;;;;5070226;28;20021;-68
2023/12/11 02:43:11;;;;;;;31.30;6.32;;;10.20;99.90;;;;;;5070440;28;20083;-68
2023/12/11 02:45:36;;;;;;;39.92;6.57;;;10.30;99.90;;;;;;5070150;28;20398;-68
2023/12/11 02:48:03;;;;;;;33.13;5.85;;;10.30;99.90;;;;;;5070173;28;20082;-67
2023/12/11 02:50:29;;;;;;;37.05;6.07;;;10.20;99.90;;;;;;5069943;28;20051;-67
2023/12/11 02:52:57;;;;;;;35.15;7.05;;;10.20;99.90;;;;;;5070291;28;20479;-67
2023/12/11 02:55:23;;;;;;;28.05;5.95;;;10.10;99.90;;;;;;5070318;28;20033;-68
2023/12/11 02:57:48;;;;;;;34.55;6.45;;;10.20;99.90;;;;;;5070178;28;20487;-67
2023/12/11 03:00:15;;;;;;;33.05;6.90;;;10.10;99.90;;;;;;5070293;28;20087;-67
2023/12/11 03:02:40;;;;;;;32.38;6.18;;;10.10;99.90;;;;;;5070021;28;20024;-68
2023/12/11 03:05:06;;;;;;;27.73;5.68;;;10.10;99.90;;;;;;5069799;28;20493;-67
2023/12/11 03:07:32;;;;;;;30.15;5.55;;;10.10;99.90;;;;;;5070021;28;20107;-67
2023/12/11 03:09:57;;;;;;;32.50;6.43;;;10.10;99.90;;;;;;5069813;28;20074;-67
2023/12/11 03:12:23;;;;;;;40.92;6.30;;;10.10;99.90;;;;;;5069961;28;20029;-67
2023/12/11 03:14:48;;;;;;;28.83;5.38;;;10.00;99.90;;;;;;5069758;28;20425;-67
2023/12/11 03:17:14;;;;;;;38.88;6.38;;;10.00;99.90;;;;;;5069854;28;20032;-67
2023/12/11 03:19:39;;;;;;;34.13;6.82;;;10.10;99.90;;;;;;5069221;28;20055;-68
2023/12/11 03:22:05;;;;;;;37.30;5.18;;;10.10;99.90;;;;;;5069511;28;20079;-68
2023/12/11 03:24:31;;;;;;;35.60;6.18;;;10.00;99.90;;;;;;5069284;28;20055;-67
2023/12/11 03:26:56;;;;;;;36.20;6.50;;;10.10;99.90;;;;;;5069511;28;20033;-67
2023/12/11 03:29:22;;;;;;;31.80;5.80;;;10.10;99.90;;;;;;5069502;28;20033;-67
2023/12/11 03:31:47;;;;;;;31.65;6.15;;;10.20;99.90;;;;;;5069498;28;20082;-68
2023/12/11 03:34:13;;;;;;;34.97;6.30;;;10.20;99.90;;;;;;5069515;28;20075;-68
2023/12/11 03:36:38;;;;;;;32.03;5.63;;;10.30;99.90;;;;;;5059982;28;20025;-68
2023/12/11 03:39:04;;;;;;;40.67;5.97;;;10.30;99.90;;;;;;5056166;28;20033;-67
2023/12/11 03:41:29;;;;;;;38.47;6.07;;;10.30;99.90;;;;;;5056012;28;20033;-67
2023/12/11 03:43:55;;;;;;;37.30;6.00;;;10.40;99.90;;;;;;5055810;28;20040;-67
2023/12/11 03:46:21;;;;;;;27.88;5.28;;;10.40;99.90;;;;;;5056105;28;20123;-67
2023/12/11 03:48:47;;;;;;;31.02;6.15;;;10.40;99.90;;;;;;5055928;28;20083;-67
2023/12/11 03:51:12;;;;;;;29.80;6.07;;;10.30;99.90;;;;;;5055899;28;20033;-67
2023/12/11 03:53:38;;;;;;;27.45;4.97;;;10.20;99.90;;;;;;5055738;28;20029;-67
2023/12/11 03:56:04;;;;;;;32.10;6.75;;;10.30;99.90;;;;;;5035565;28;20061;-67
2023/12/11 03:58:29;;;;;;;39.42;5.72;;;10.30;99.90;;;;;;5035786;28;20029;-67
2023/12/11 04:00:55;;;;;;;36.55;5.63;;;10.40;99.90;;;;;;5035407;28;20061;-67
2023/12/11 04:03:20;;;;;;;32.17;5.88;;;10.40;99.90;;;;;;5035424;28;20391;-67
2023/12/11 04:05:46;;;;;;;30.92;4.93;;;10.50;99.90;;;;;;5035483;28;20515;-67
2023/12/11 04:08:12;;;;;;;35.30;5.10;;;10.50;99.90;;;;;;5035647;28;20468;-67
2023/12/11 04:10:38;;;;;;;30.90;5.68;;;10.50;99.90;;;;;;5035087;28;20487;-67
2023/12/11 04:13:04;;;;;;;35.47;6.28;;;10.50;99.90;;;;;;5035607;28;20052;-67
2023/12/11 04:15:29;;;;;;;32.53;5.97;;;10.50;99.90;;;;;;5035542;28;20030;-67
2023/12/11 04:17:55;;;;;;;31.65;6.53;;;10.50;99.90;;;;;;5035502;28;20033;-68
2023/12/11 04:20:20;;;;;;;31.60;5.35;;;10.50;99.90;;;;;;5035416;28;20064;-67
2023/12/11 04:22:46;;;;;;;34.20;7.22;;;10.40;99.90;;;;;;5035302;28;20368;-67
2023/12/11 04:25:12;;;;;;;34.05;5.35;;;10.40;99.90;;;;;;5034689;28;20041;-68
2023/12/11 04:27:37;;;;;;;34.53;6.53;;;10.30;99.90;;;;;;5035824;28;20040;-69
2023/12/11 04:30:04;;;;;;;31.13;5.50;;;10.40;99.90;;;;;;5035410;28;20113;-68
2023/12/11 04:32:30;;;;;;;35.05;5.97;;;10.50;99.90;;;;;;5035171;28;20032;-68
2023/12/11 04:34:55;;;;;;;34.70;5.78;;;10.50;99.90;;;;;;5034851;28;20546;-68
2023/12/11 04:37:21;;;;;;;29.08;5.70;;;10.30;99.90;;;;;;5034583;28;20029;-69
2023/12/11 04:39:46;;;;;;;29.08;4.70;;;10.20;99.90;;;;;;5034962;28;20044;-68
2023/12/11 04:42:12;;;;;;;24.40;5.10;;;10.40;99.90;;;;;;5034849;28;20060;-68
2023/12/11 04:44:37;;;;;;;29.55;5.32;;;10.50;99.90;;;;;;5034767;28;20025;-69
2023/12/11 04:47:03;;;;;;;26.13;4.65;;;10.50;99.90;;;;;;5034520;28;20040;-68
2023/12/11 04:49:30;;;;;;;25.95;4.65;;;;;;;;;;5034169;28;20018;-69
2023/12/11 04:51:58;;;;;;;33.20;4.85;;;10.30;99.90;;;;;;5034843;28;20021;-68
2023/12/11 04:54:23;;;;;;;25.85;5.28;;;10.30;99.90;;;;;;5034849;28;20035;-68
2023/12/11 04:56:49;;;;;;;24.48;4.47;;;10.30;99.90;;;;;;5034833;28;20038;-68
2023/12/11 04:59:14;;;;;;;27.33;4.97;;;10.30;99.90;;;;;;5034724;28;20037;-68
2023/12/11 05:01:40;;;;;;;29.33;5.65;;;10.30;99.90;;;;;;5034192;28;20029;-68
2023/12/11 05:04:06;;;;;;;29.73;5.07;;;10.20;99.90;;;;;;5034490;28;20033;-68
2023/12/11 05:06:31;;;;;;;25.75;5.05;;;10.20;99.90;;;;;;5034554;28;20108;-68
2023/12/11 05:08:57;;;;;;;23.42;4.55;;;10.20;99.90;;;;;;5034083;28;20029;-68
2023/12/11 05:11:23;;;;;;;27.85;4.68;;;10.20;99.90;;;;;;5034380;28;20025;-68
2023/12/11 05:13:48;;;;;;;28.00;5.35;;;10.20;99.90;;;;;;5034508;28;20391;-69
2023/12/11 05:16:14;;;;;;;31.95;5.13;;;10.20;99.90;;;;;;5034591;28;20120;-68
2023/12/11 05:18:39;;;;;;;29.42;5.40;;;10.30;99.90;;;;;;5033972;28;20029;-68
2023/12/11 05:21:07;;;;;;;23.45;4.53;;;10.30;99.90;;;;;;5034185;28;20017;-68
2023/12/11 05:23:33;;;;;;;25.20;4.70;;;10.40;99.90;;;;;;5034294;28;20018;-68
2023/12/11 05:25:58;;;;;;;20.83;4.18;;;10.40;99.90;;;;;;5033671;28;20442;-68
2023/12/11 05:28:24;;;;;;;27.27;4.55;;;10.40;99.90;;;;;;5033635;28;20033;-68
2023/12/11 05:30:49;;;;;;;25.33;4.72;;;10.30;99.90;;;;;;5034129;28;20048;-68
2023/12/11 05:33:15;;;;;;;30.38;4.45;;;10.20;99.90;;;;;;5033953;28;20022;-68
2023/12/11 05:35:40;;;;;;;21.95;4.25;;;10.10;99.90;;;;;;5033970;28;20057;-68
2023/12/11 05:38:06;;;;;;;20.75;4.10;;;10.00;99.90;;;;;;5033901;28;20369;-68
2023/12/11 05:40:32;;;;;;;26.45;4.82;;;9.80;99.90;;;;;;5033617;28;20483;-68
2023/12/11 05:42:57;;;;;;;23.58;4.75;;;9.60;99.90;;;;;;5033502;28;20079;-69
2023/12/11 05:45:23;;;;;;;30.52;4.93;;;9.60;99.90;;;;;;5033411;28;20117;-68
2023/12/11 05:47:48;;;;;;;33.80;6.25;;;9.50;99.90;;;;;;5033799;28;20036;-68
2023/12/11 05:50:14;;;;;;;28.45;5.55;;;9.50;99.90;;;;;;5033265;28;20026;-68
2023/12/11 05:52:39;;;;;;;30.83;5.57;;;9.50;99.90;;;;;;5033583;28;20034;-68
2023/12/11 05:55:05;;;;;;;32.17;4.68;;;9.40;99.90;;;;;;5033296;28;20074;-68
2023/12/11 05:57:31;;;;;;;25.73;5.85;;;9.40;99.90;;;;;;5033708;28;20030;-68
2023/12/11 05:59:57;;;;;;;22.30;5.68;;;9.50;99.90;;;;;;5033384;28;20127;-69
2023/12/11 06:02:24;;;;;;;27.60;7.18;;;9.60;99.90;;;;;;5033482;28;20090;-68
2023/12/11 06:04:51;;;;;;;24.58;6.50;;;9.60;99.90;;;;;;5033035;28;20022;-68
2023/12/11 06:07:17;;;;;;;31.98;9.10;;;9.70;99.90;;;;;;5033590;28;20495;-69
2023/12/11 06:09:42;;;;;;;24.27;5.03;;;9.80;99.90;;;;;;5033522;28;20454;-68
2023/12/11 06:12:09;;;;;;;26.58;5.35;;;9.80;99.90;;;;;;5033025;28;20056;-68
2023/12/11 06:14:38;;;;;;;19.83;4.88;;;9.80;99.90;;;;;;5033454;28;20479;-68
2023/12/11 06:17:04;;;;;;;22.88;5.55;;;9.80;99.90;;;;;;5033347;28;20383;-68
2023/12/11 06:19:29;;;;;;;22.92;6.07;;;9.80;99.90;;;;;;5032933;28;20033;-68
2023/12/11 06:21:55;;;;;;;26.77;5.53;;;9.80;99.90;;;;;;5033385;28;20065;-68
2023/12/11 06:24:20;;;;;;;28.95;6.65;;;9.90;99.90;;;;;;5033070;28;20050;-68
2023/12/11 06:26:46;;;;;;;31.95;4.82;;;9.90;99.90;;;;;;5033421;28;20017;-68
2023/12/11 06:29:12;;;;;;;18.65;4.70;;;9.90;99.90;;;;;;5033303;28;20064;-68
2023/12/11 06:31:37;;;;;;;22.77;5.22;;;10.00;99.90;;;;;;5033283;28;20037;-68
2023/12/11 06:34:03;;;;;;;21.27;4.88;;;9.90;99.90;;;;;;5032778;28;20029;-68
2023/12/11 06:36:29;;;;;;;23.90;4.70;;;9.90;99.90;;;;;;5032937;28;20030;-68
2023/12/11 06:38:55;;;;;;;25.23;8.07;;;10.00;99.90;;;;;;5033224;28;20079;-68
2023/12/11 06:41:21;;;;;;;21.35;5.15;;;10.00;99.90;;;;;;5033143;28;20100;-68
2023/12/11 06:43:48;;;;;;;20.80;3.80;;;10.00;99.90;;;;;;5033107;28;20415;-68
2023/12/11 06:46:14;;;;;;;26.08;5.20;;;10.00;99.90;;;;;;5032824;28;20550;-68
2023/12/11 06:48:39;;;;;;;26.48;4.47;;;10.00;99.90;;;;;;5032899;28;20033;-68
2023/12/11 06:51:05;;;;;;;21.02;4.18;;;10.00;99.90;;;;;;5032703;28;20022;-67
2023/12/11 06:53:31;;;;;;;23.73;5.28;;;10.00;99.90;;;;;;5033413;28;20119;-67
2023/12/11 06:55:56;;;;;;;32.33;4.80;;;10.00;99.90;;;;;;5035045;28;20033;-68
2023/12/11 06:58:22;;;;;;;29.10;4.82;;;10.20;99.90;;;;;;5034402;28;20029;-69
2023/12/11 07:00:47;;;;;;;27.73;7.13;;;10.20;99.90;;;;;;5033512;28;20079;-68
2023/12/11 07:03:13;;;;;;;25.70;5.72;;;10.10;99.90;;;;;;5033527;28;20061;-67
2023/12/11 07:05:46;;;;;;;26.90;6.00;;;10.20;99.90;;;;;;5032661;28;20060;-68
2023/12/11 07:08:12;;;;;;;;;;;10.10;99.90;;;;;;5040712;28;20088;-68
2023/12/11 07:10:38;;;;;;;32.00;5.47;;;10.00;99.90;;;;;;5046815;28;20330;-66
2023/12/11 07:13:04;;;;;;;28.90;9.30;;;10.00;99.90;;;;;;5041323;28;20211;-68
2023/12/11 07:15:30;;;;;;;30.95;6.93;;;9.90;99.90;;;;;;5042162;28;20395;-67
2023/12/11 07:17:56;;;;;;;32.22;6.03;;;9.90;99.90;;;;;;5037737;28;20040;-68
2023/12/11 07:20:22;;;;;;;31.88;6.55;;;9.90;99.90;;;;;;5040187;28;20036;-68
2023/12/11 07:22:49;;;;;;;30.73;5.70;;;10.00;99.90;;;;;;5032916;28;20120;-68
2023/12/11 07:25:15;;;;;;;27.83;5.53;;;10.10;99.90;;;;;;5039635;28;20041;-67
2023/12/11 07:27:42;;;;;;;25.10;5.63;;;10.00;99.90;;;;;;5028603;28;20534;-68
2023/12/11 07:30:08;;;;;;;19.52;4.80;;;10.10;99.90;;;;;;5037137;28;20041;-68
2023/12/11 07:32:34;;;;;;;23.17;4.63;;;10.20;99.90;;;;;;5038860;28;20025;-67
2023/12/11 07:35:00;;;;;;;31.23;6.70;;;10.30;99.90;;;;;;5035100;28;20395;-68
2023/12/11 07:37:26;;;;;;;23.67;6.00;;;10.20;99.90;;;;;;5035226;28;20033;-68
2023/12/11 07:39:51;;;;;;;22.23;5.90;;;10.20;99.90;;;;;;5037451;28;20029;-68
2023/12/11 07:42:17;;;;;;;21.40;5.32;;;10.30;99.90;;;;;;5035089;28;20038;-68
2023/12/11 07:44:42;;;;;;;25.63;5.55;;;10.30;99.90;;;;;;5030940;28;20033;-66
2023/12/11 07:47:08;;;;;;;35.67;7.18;;;10.30;99.90;;;;;;5032488;28;20033;-66
2023/12/11 07:49:34;;;;;;;26.42;4.88;;;10.30;99.90;;;;;;5031632;28;20490;-68
2023/12/11 07:52:01;;;;;;;24.20;5.05;;;10.20;99.90;;;;;;5035523;28;20041;-70
2023/12/11 07:54:29;;;;;;;23.45;5.15;;;10.10;99.90;;;;;;5033998;28;20030;-72
2023/12/11 07:56:55;;;;;;;28.55;5.40;;;10.00;99.90;;;;;;5032193;28;20036;-66
2023/12/11 07:59:20;;;;;;;25.98;5.25;;;10.00;99.90;;;;;;5028953;28;20116;-68
2023/12/11 08:01:47;;;;;;;26.92;6.68;;;10.00;99.90;;;;;;5037921;28;20033;-68
2023/12/11 08:04:13;;;;;;;28.15;9.85;;;9.90;99.90;;;;;;5039491;28;20472;-67
2023/12/11 08:06:41;;;;;;;43.05;19.17;;;9.80;99.90;;;;;;5034243;28;20047;-67
2023/12/11 08:09:07;;;;;;;34.25;6.65;;;9.80;99.90;;;;;;5032361;28;20044;-67
2023/12/11 08:11:33;;;;;;;29.90;10.05;;;9.70;99.90;;;;;;5043148;28;20450;-66
2023/12/11 08:13:58;;;;;;;36.55;13.02;;;9.70;99.90;;;;;;5041490;28;20108;-68
2023/12/11 08:16:24;;;;;;;32.67;8.02;;;9.70;99.90;;;;;;5041098;28;20032;-71
2023/12/11 08:18:50;;;;;;;31.52;6.10;;;9.70;99.90;;;;;;5040179;28;20483;-70
2023/12/11 08:21:16;;;;;;;23.42;6.80;;;9.60;99.90;;;;;;5033182;28;20033;-68
2023/12/11 08:23:44;;;;;;;29.40;5.97;;;9.50;99.90;;;;;;5033928;28;20030;-66
2023/12/11 08:26:10;;;;;;;32.90;6.53;;;9.50;99.90;;;;;;5028921;28;20640;-68
2023/12/11 08:28:36;;;;;;;25.33;5.45;;;9.50;99.90;;;;;;5032498;28;20021;-69
2023/12/11 08:31:03;;;;;;;29.65;5.85;;;9.50;99.90;;;;;;5027625;28;20475;-70
2023/12/11 08:33:29;;;;;;;22.38;5.32;;;9.50;99.90;;;;;;5022751;28;20038;-69
2023/12/11 08:35:55;;;;;;;23.30;4.88;;;9.50;99.90;;;;;;5027287;28;20135;-68
2023/12/11 08:38:22;;;;;;;22.15;5.15;;;9.60;99.90;;;;;;5034073;28;20072;-70
2023/12/11 08:40:48;;;;;;;29.20;7.90;;;9.70;99.90;;;;;;5029155;28;20037;-68
2023/12/11 08:43:13;;;;;;;26.63;7.43;;;9.80;99.90;;;;;;5035608;28;20040;-66
2023/12/11 08:45:39;;;;;;;32.72;13.80;;;9.80;99.90;;;;;;5035537;28;20087;-68
2023/12/11 08:48:05;;;;;;;24.95;5.53;;;9.90;99.90;;;;;;5035885;28;20028;-68
2023/12/11 08:50:31;;;;;;;33.78;8.65;;;9.90;99.90;;;;;;5033309;28;20529;-67
2023/12/11 08:52:57;;;;;;;27.58;7.05;;;9.90;99.90;;;;;;5030194;28;20038;-69
2023/12/11 08:55:22;;;;;;;23.23;4.20;;;9.90;99.90;;;;;;5026322;28;20407;-68
2023/12/11 08:57:48;;;;;;;21.38;3.85;;;9.90;99.90;;;;;;5029680;28;20505;-69
2023/12/11 09:00:14;;;;;;;30.58;5.13;;;9.90;99.90;;;;;;5038459;28;20041;-69
2023/12/11 09:02:40;;;;;;;26.40;5.72;;;10.00;99.90;;;;;;5036089;28;20044;-69
2023/12/11 09:05:05;;;;;;;16.25;4.95;;;10.00;99.90;;;;;;5035727;28;20025;-69
2023/12/11 09:07:31;;;;;;;23.38;3.97;;;10.00;99.90;;;;;;5031906;28;20025;-69
2023/12/11 09:09:57;;;;;;;18.17;4.60;;;10.00;99.90;;;;;;5029979;28;20087;-70
2023/12/11 09:12:22;;;;;;;23.13;4.70;;;10.00;99.90;;;;;;5031789;28;20368;-69
2023/12/11 09:14:48;;;;;;;18.38;4.57;;;10.00;99.90;;;;;;5034814;28;20033;-69
2023/12/11 09:17:13;;;;;;;17.40;5.07;;;10.00;99.90;;;;;;5035974;28;20036;-69
2023/12/11 09:19:39;;;;;;;26.35;5.97;;;9.90;99.90;;;;;;5032078;28;20084;-69
2023/12/11 09:22:04;;;;;;;17.40;5.38;;;9.90;99.90;;;;;;5041908;28;20044;-69
2023/12/11 09:24:30;;;;;;;22.67;5.65;;;9.90;99.90;;;;;;5031322;28;20045;-69
2023/12/11 09:26:56;;;;;;;26.13;5.65;;;9.90;99.90;;;;;;5031921;28;20018;-69
2023/12/11 09:29:21;;;;;;;27.05;7.07;;;9.80;99.90;;;;;;5032872;28;20411;-71
2023/12/11 09:31:47;;;;;;;27.25;7.85;;;9.80;99.90;;;;;;5039753;28;20336;-69
2023/12/11 09:34:12;;;;;;;21.65;6.65;;;9.70;99.90;;;;;;5035084;28;20078;-71
2023/12/11 09:36:38;;;;;;;24.10;7.75;;;9.70;99.90;;;;;;5028593;28;20028;-71
2023/12/11 09:39:04;;;;;;;18.05;7.15;;;9.70;99.90;;;;;;5033408;28;20550;-70
2023/12/11 09:41:34;;;;;;;22.77;7.20;;;9.70;99.90;;;;;;5039528;28;20044;-70
2023/12/11 09:44:01;;;;;;;30.67;7.00;;;9.70;99.90;;;;;;5032658;28;20084;-70
2023/12/11 09:46:31;;;;;;;20.10;7.43;;;9.70;99.90;;;;;;5039796;28;20029;-70
2023/12/11 09:48:57;;;;;;;31.30;8.05;;;9.70;99.90;;;;;;5035683;28;20056;-70
2023/12/11 09:51:22;;;;;;;28.90;7.53;;;9.60;99.90;;;;;;5033845;28;20065;-70
2023/12/11 09:53:51;;;;;;;31.05;8.35;;;9.60;99.90;;;;;;5035132;28;20117;-70
2023/12/11 09:56:16;;;;;;;27.38;9.75;;;9.50;99.90;;;;;;5028788;28;20591;-70
2023/12/11 09:58:44;;;;;;;33.22;14.75;;;9.50;99.90;;;;;;5029166;28;20128;-71
2023/12/11 10:01:13;;;;;;;52.05;22.73;;;9.40;99.90;;;;;;5034470;28;20033;-70
2023/12/11 10:03:38;;;;;;;44.42;19.75;;;9.40;99.90;;;;;;5039277;28;20163;-70
2023/12/11 10:06:04;;;;;;;49.22;21.83;;;9.50;99.90;;;;;;5033277;28;20527;-70
2023/12/11 10:08:32;;;;;;;37.85;17.10;;;9.60;99.90;;;;;;5037170;28;20390;-71
2023/12/11 10:11:17;;;;;;;24.75;9.75;;;9.60;99.90;;;;;;5033360;28;20488;-70
2023/12/11 10:13:43;;;;;;;26.88;9.75;;;9.60;99.90;;;;;;5031382;28;20029;-69
2023/12/11 10:16:29;;;;;;;17.60;7.03;;;9.70;99.90;;;;;;5032939;28;20041;-69
2023/12/11 10:18:55;;;;;;;21.65;5.75;;;9.70;99.90;;;;;;5040053;28;20403;-69
2023/12/11 10:21:24;;;;;;;19.52;6.78;;;9.70;99.90;;;;;;5022398;28;20030;-69
2023/12/11 10:24:11;;;;;;;18.48;5.25;;;9.70;99.90;;;;;;5029890;28;20523;-70
2023/12/11 10:26:38;;;;;;;18.13;4.97;;;9.70;99.90;;;;;;5030089;28;20437;-70
2023/12/11 10:29:21;;;;;;;15.95;4.70;;;9.70;99.90;;;;;;5031061;28;20116;-70
2023/12/11 10:31:47;;;;;;;19.88;3.95;;;9.70;99.90;;;;;;5032265;28;20061;-69
2023/12/11 10:34:13;;;;;;;14.18;3.70;;;9.70;99.90;;;;;;5037131;28;20018;-69
2023/12/11 10:36:50;;;;;;;12.32;3.58;;;9.70;99.90;;;;;;5032214;28;20108;-69
2023/12/11 10:39:17;;;;;;;15.43;3.17;;;9.60;99.90;;;;;;5030175;28;20116;-74
2023/12/11 10:41:45;;;;;;;17.08;4.05;;;9.60;99.90;;;;;;5027759;28;20029;-72
2023/12/11 10:44:27;;;;;;;15.40;3.80;;;9.70;99.90;;;;;;5030422;28;20529;-71
2023/12/11 10:46:54;;;;;;;9.48;4.43;;;9.60;99.90;;;;;;5030245;28;20026;-70
2023/12/11 10:49:22;;;;;;;27.63;11.15;;;9.60;99.90;;;;;;5033399;28;20490;-70
2023/12/11 10:51:48;;;;;;;16.50;6.35;;;9.50;99.90;;;;;;5040107;28;20034;-70
2023/12/11 10:54:14;;;;;;;25.55;8.52;;;9.50;99.90;;;;;;5035880;28;20537;-69
2023/12/11 10:56:45;;;;;;;27.00;8.00;;;9.40;99.90;;;;;;5033817;28;20065;-69
2023/12/11 10:59:12;;;;;;;24.73;11.18;;;9.50;99.90;;;;;;5040578;28;20078;-70
2023/12/11 11:01:44;;;;;;;34.45;15.23;;;9.50;99.90;;;;;;5027799;28;20036;-70
2023/12/11 11:04:12;;;;;;;19.48;8.88;;;9.70;99.90;;;;;;5034190;28;20033;-70
2023/12/11 11:06:46;;;;;;;9.90;4.00;;;9.70;99.90;;;;;;5038267;28;20025;-69
2023/12/11 11:09:18;;;;;;;16.40;3.53;;;9.80;99.90;;;;;;5037889;28;20461;-69
2023/12/11 11:11:52;;;;;;;11.23;4.30;;;9.80;99.90;;;;;;5035313;28;20018;-70
2023/12/11 11:17:01;;;;;;;11.07;3.58;;;9.70;99.90;;;;;;5089889;28;20397;-71
2023/12/11 11:19:29;;;;;;;12.05;3.55;;;9.80;99.90;;;;;;5071558;28;20036;-71
2023/12/11 11:22:21;;;;;;;11.60;3.53;;;9.80;99.90;;;;;;5069478;28;20056;-71
2023/12/11 11:24:47;;;;;;;11.45;3.03;;;9.80;99.90;;;;;;5081814;28;20082;-71
2023/12/11 11:27:41;;;;;;;14.27;2.80;;;9.80;99.90;;;;;;5080082;28;20494;-71
2023/12/11 11:30:07;;;;;;;13.30;3.10;;;9.80;99.90;;;;;;5059290;28;20036;-70
2023/12/11 11:32:53;;;;;;;12.95;3.05;;;9.90;99.90;;;;;;5078388;28;20087;-70
2023/12/11 11:38:51;;;;;;;11.32;2.38;;;9.80;99.90;;;;;;5142405;27;20127;-71
2023/12/11 11:41:27;;;;;;;11.23;4.75;;;;;;;;;;5114761;28;20088;-71
2023/12/11 11:44:05;;;;;;;13.15;4.70;;;9.70;99.90;;;;;;5120961;28;20034;-71
2023/12/11 11:46:52;;;;;;;14.63;3.72;;;;;;;;;;5116441;28;20486;-72
2023/12/11 11:49:26;;;;;;;10.15;4.40;;;;;;;;;;5118791;28;20043;-71
2023/12/11 11:51:52;;;;;;;11.95;4.07;;;;;;;;;;5121297;28;20032;-72
2023/12/11 11:54:29;;;;;;;10.93;4.10;;;;;;;;;;5115263;28;20366;-71
2023/12/11 11:57:11;;;;;;;8.55;2.88;;;;;;;;;;5116001;28;20440;-71
2023/12/11 11:59:42;;;;;;;14.38;3.20;;;;;;;;;;5116889;28;20031;-70
2023/12/11 12:02:08;;;;;;;10.52;2.80;;;;;;;;;;5117008;28;20024;-70
2023/12/11 12:04:34;;;;;;;7.80;2.28;;;;;;;;;;5117476;28;20016;-71
2023/12/11 12:07:02;;;;;;;9.63;2.15;;;;;;;;;;5113271;28;20500;-71
2023/12/11 12:09:28;;;;;;;11.75;2.80;;;;;;;;;;5119670;28;20025;-71
2023/12/11 12:11:54;;;;;;;9.68;3.22;;;;;;;;;;5117128;28;20047;-71
2023/12/11 12:14:21;;;;;;;7.65;2.55;;;;;;;;;;5116775;28;20032;-71
2023/12/11 12:16:47;;;;;;;10.93;2.45;;;;;;;;;;5115037;28;20028;-71
2023/12/11 12:19:15;;;;;;;8.02;2.40;;;;;;;;;;5115515;28;20150;-71
2023/12/11 12:21:58;;;;;;;8.65;2.25;;;;;;;;;;5112624;28;20032;-72
2023/12/11 12:24:26;;;;;;;;;;;;;;;;;;5123129;28;20045;-70
2023/12/11 12:26:57;;;;;;;13.73;3.17;;;;;;;;;;5121453;28;19930;-71
2023/12/11 12:29:25;;;;;;;9.00;2.20;;;;;;;;;;5122544;28;20020;-71
2023/12/11 12:31:53;;;;;;;9.90;3.00;;;;;;;;;;5122293;28;20028;-71
2023/12/11 12:34:22;;;;;;;10.48;2.92;;;;;;;;;;5120869;28;20401;-70
2023/12/11 12:36:51;;;;;;;11.00;3.17;;;;;;;;;;5114267;28;20056;-71
2023/12/11 12:39:21;;;;;;;9.40;2.63;;;;;;;;;;5117301;28;20034;-70
2023/12/11 12:41:51;;;;;;;10.38;2.78;;;;;;;;;;5111398;28;20028;-70
2023/12/11 12:44:19;;;;;;;13.73;3.13;;;;;;;;;;5120220;28;20561;-70
2023/12/11 12:46:48;;;;;;;15.43;2.85;;;;;;;;;;5119758;28;20028;-71
2023/12/11 12:49:18;;;;;;;10.85;2.53;;;;;;;;;;5101407;28;20024;-71
2023/12/11 12:51:48;;;;;;;13.52;2.50;;;;;;;;;;5102537;28;20020;-70
2023/12/11 12:54:17;;;;;;;8.52;2.60;;;;;;;;;;5109851;28;20477;-70
2023/12/11 12:56:46;;;;;;;7.45;2.38;;;;;;;;;;5099873;28;20478;-70
2023/12/11 12:59:15;;;;;;;8.05;2.22;;;;;;;;;;5105218;28;20031;-70